Time;durP1;ratioP1;P1;durP2;ratioP2;P2;SDS_P1;SDS_P2;PMS_P1;PMS_P2;Temp;Humidity;BMP_temperature;BMP_pressure;BME280_temperature;BME280_humidity;BME280_pressure;Samples;Min_cycle;Max_cycle;Signal;HPM_P1;HPM_P2
2021/05/18 00:02:00;;;;;;;;;;;;;;;;;;5033340;28;20007;-44
2021/05/18 00:04:26;;;;;;;;;;;;;;;;;;5027645;28;19917;-43
2021/05/18 00:06:53;;;;;;;;;;;;;;;;;;5037597;28;19953;-43
2021/05/18 00:12:03;;;;;;;;;;;;;;;;;;5036583;28;19923;-44
2021/05/18 00:14:30;;;;;;;;;;;;;;;;;;5032694;28;19913;-43
2021/05/18 00:16:57;;;;;;;;;;;;;;;;;;5011482;28;20182;-43
2021/05/18 00:19:23;;;;;;;;;;;;;;;;;;5018088;28;19919;-44
2021/05/18 00:21:49;;;;;;;;;;;;;;;;;;5010559;28;20088;-43
2021/05/18 00:24:17;;;;;;;;;;;;;;;;;;5029215;28;19916;-43
2021/05/18 00:26:43;;;;;;;;;;;;;;;;;;5026052;28;19927;-42
2021/05/18 00:29:09;;;;;;;;;;;;;;;;;;5036599;28;19916;-44
2021/05/18 00:31:35;;;;;;;;;;;;;;;;;;5027296;28;20129;-43
2021/05/18 00:34:01;;;;;;;;;;;;;;;;;;5033188;28;19917;-43
2021/05/18 00:36:27;;;;;;;;;;;;;;;;;;5027365;28;19920;-43
2021/05/18 00:38:52;;;;;;;;;;;;;;;;;;5033748;28;20298;-43
2021/05/18 00:41:18;;;;;;;;;;;;;;;;;;5023756;28;20229;-43
2021/05/18 00:43:44;;;;;;;;;;;;;;;;;;5033958;28;19917;-44
2021/05/18 00:46:11;;;;;;;;;;;;;;;;;;5025008;28;19924;-43
2021/05/18 00:48:37;;;;;;;;;;;;;;;;;;5028577;28;19924;-43
2021/05/18 00:51:03;;;;;;;;;;;;;;;;;;5029811;28;20105;-44
2021/05/18 00:53:29;;;;;;;;;;;;;;;;;;5032085;28;20015;-43
2021/05/18 00:56:02;;;;;;;;;;;;;;;;;;5036711;28;19920;-44
2021/05/18 00:58:32;;;;;;;;;;;;;;;;;;5028529;28;20492;-43
2021/05/18 01:00:58;;;;;;;;;;;;;;;;;;5035012;28;19948;-43
2021/05/18 01:03:24;;;;;;;;;;;;;;;;;;5025964;28;19956;-44
2021/05/18 01:08:34;;;;;;;;;;;;;;;;;;5024311;28;20455;-44
2021/05/18 01:11:00;;;;;;;;;;;;;;;;;;5035341;28;19924;-43
2021/05/18 01:13:28;;;;;;;;;;;;;;;;;;5005571;28;19916;-43
2021/05/18 01:15:54;;;;;;;;;;;;;;;;;;5034018;28;19917;-44
2021/05/18 01:18:20;;;;;;;;;;;;;;;;;;5023929;28;20289;-43
2021/05/18 01:20:46;;;;;;;;;;;;;;;;;;5017228;28;20010;-43
2021/05/18 01:23:12;;;;;;;;;;;;;;;;;;5020779;28;20025;-43
2021/05/18 01:25:38;;;;;;;;;;;;;;;;;;5038667;28;19920;-43
2021/05/18 01:28:03;;;;;;;;;;;;;;;;;;5026933;28;19917;-44
2021/05/18 01:30:29;;;;;;;;;;;;;;;;;;5032313;28;19928;-43
2021/05/18 01:32:55;;;;;;;;;;;;;;;;;;5023338;28;19944;-43
2021/05/18 01:35:21;;;;;;;;;;;;;;;;;;5031442;28;20607;-44
2021/05/18 01:37:48;;;;;;;;;;;;;;;;;;5017544;28;19917;-44
2021/05/18 01:42:47;;;;;;;;;;;;;;;;;;5036746;28;19913;-42
2021/05/18 01:45:13;;;;;;;;;;;;;;;;;;5009620;28;20693;-43
2021/05/18 01:47:40;;;;;;;;;;;;;;;;;;5033993;28;19932;-43
2021/05/18 01:50:06;;;;;;;;;;;;;;;;;;5013882;28;19967;-43
2021/05/18 01:52:32;;;;;;;;;;;;;;;;;;5030599;28;20381;-44
2021/05/18 01:54:58;;;;;;;;;;;;;;;;;;5029846;28;19913;-43
2021/05/18 01:57:26;;;;;;;;;;;;;;;;;;5033663;28;19927;-43
2021/05/18 01:59:52;;;;;;;;;;;;;;;;;;5025227;28;19970;-43
2021/05/18 02:02:18;;;;;;;;;;;;;;;;;;5027073;28;19917;-43
2021/05/18 02:04:44;;;;;;;;;;;;;;;;;;5023783;28;19933;-43
2021/05/18 02:07:10;;;;;;;;;;;;;;;;;;5032324;28;19923;-43
2021/05/18 02:09:36;;;;;;;;;;;;;;;;;;5021727;28;19908;-44
2021/05/18 02:12:02;;;;;;;;;;;;;;;;;;5027758;28;19925;-43
2021/05/18 02:14:32;;;;;;;;;;;;;;;;;;5031073;28;20033;-44
2021/05/18 02:17:05;;;;;;;;;;;;;;;;;;5027516;28;19909;-42
2021/05/18 02:19:45;;;;;;;;;;;;;;;;;;5031159;28;19924;-43
2021/05/18 02:25:00;;;;;;;;;;;;;;;;;;5036058;28;20137;-43
2021/05/18 02:27:27;;;;;;;;;;;;;;;;;;5028899;28;20003;-43
2021/05/18 02:29:53;;;;;;;;;;;;;;;;;;5035507;28;19971;-43
2021/05/18 02:32:18;;;;;;;;;;;;;;;;;;5028070;28;20101;-43
2021/05/18 02:34:44;;;;;;;;;;;;;;;;;;5035409;28;21244;-43
2021/05/18 02:37:10;;;;;;;;;;;;;;;;;;5028220;28;19953;-44
2021/05/18 02:39:36;;;;;;;;;;;;;;;;;;5038553;28;19916;-43
2021/05/18 02:42:02;;;;;;;;;;;;;;;;;;5028353;28;19913;-44
2021/05/18 02:49:54;;;;;;;;;;;;;;;;;;5038895;28;20413;-44
2021/05/18 02:52:20;;;;;;;;;;;;;;;;;;5012578;28;19921;-44
2021/05/18 02:54:50;;;;;;;;;;;;;;;;;;5022732;28;19952;-43
2021/05/18 02:57:30;;;;;;;;;;;;;;;;;;5033521;28;19995;-43
2021/05/18 02:59:56;;;;;;;;;;;;;;;;;;5039376;28;19916;-43
2021/05/18 03:02:22;;;;;;;;;;;;;;;;;;5026903;28;20301;-43
2021/05/18 03:04:47;;;;;;;;;;;;;;;;;;5017838;28;20043;-44
2021/05/18 03:07:13;;;;;;;;;;;;;;;;;;5029306;28;20325;-43
2021/05/18 03:09:39;;;;;;;;;;;;;;;;;;5018910;28;19920;-43
2021/05/18 03:12:05;;;;;;;;;;;;;;;;;;5028734;28;20260;-44
2021/05/18 03:14:31;;;;;;;;;;;;;;;;;;5018862;28;20412;-43
2021/05/18 03:16:57;;;;;;;;;;;;;;;;;;5023127;28;19912;-43
2021/05/18 03:19:23;;;;;;;;;;;;;;;;;;5028203;28;20456;-44
2021/05/18 03:21:49;;;;;;;;;;;;;;;;;;5032523;28;19985;-44
2021/05/18 03:24:15;;;;;;;;;;;;;;;;;;5028788;28;20433;-43
2021/05/18 03:26:45;;;;;;;;;;;;;;;;;;5017803;28;19917;-43
2021/05/18 03:29:19;;;;;;;;;;;;;;;;;;5028071;28;19932;-42
2021/05/18 03:34:34;;;;;;;;;;;;;;;;;;5023683;28;21621;-42
2021/05/18 03:37:03;;;;;;;;;;;;;;;;;;5043229;28;20003;-42
2021/05/18 03:39:29;;;;;;;;;;;;;;;;;;5025314;28;20333;-43
2021/05/18 03:42:14;;;;;;;;;;;;;;;;;;5033764;28;20227;-43
2021/05/18 03:44:50;;;;;;;;;;;;;;;;;;5025678;28;20020;-42
2021/05/18 03:53:10;;;;;;;;;;;;;;;;;;5032291;28;20035;-43
2021/05/18 04:16:56;;;;;;;;;;;;;;;;;;5024812;28;19939;-44
2021/05/18 04:19:27;;;;;;;;;;;;;;;;;;5032421;28;20419;-43
2021/05/18 04:22:22;;;;;;;;;;;;;;;;;;5027584;28;19935;-42
2021/05/18 04:51:57;;;;;;;;;;;;;;;;;;5023965;28;20043;-44
2021/05/18 04:59:59;;;;;;;;;;;;;;;;;;5035712;28;20063;-45
2021/05/18 05:08:00;;;;;;;;;;;;;;;;;;5028052;28;19939;-43
2021/05/18 05:12:28;;;;;;;;;;;;;;;;;;5033182;28;20004;-44
2021/05/18 05:15:37;;;;;;;;;;;;;;;;;;5032973;28;19974;-44
2021/05/18 05:18:03;;;;;;;;;;;;;;;;;;5026172;28;20454;-44
2021/05/18 05:20:29;;;;;;;;;;;;;;;;;;5031711;28;19959;-44
2021/05/18 05:22:55;;;;;;;;;;;;;;;;;;5025434;28;20128;-44
2021/05/18 05:25:21;;;;;;;;;;;;;;;;;;5030097;28;19940;-45
2021/05/18 05:27:47;;;;;;;;;;;;;;;;;;5025680;28;19913;-44
2021/05/18 05:30:13;;;;;;;;;;;;;;;;;;5032925;28;19940;-43
2021/05/18 05:32:39;;;;;;;;;;;;;;;;;;5030229;28;19982;-44
2021/05/18 05:35:05;;;;;;;;;;;;;;;;;;5019934;28;19975;-44
2021/05/18 05:37:31;;;;;;;;;;;;;;;;;;5027978;28;19985;-44
2021/05/18 05:39:57;;;;;;;;;;;;;;;;;;5018422;28;19921;-44
2021/05/18 05:42:23;;;;;;;;;;;;;;;;;;5010453;28;20023;-43
2021/05/18 05:44:49;;;;;;;;;;;;;;;;;;5011747;28;19940;-44
2021/05/18 05:47:15;;;;;;;;;;;;;;;;;;5027321;28;19912;-49
2021/05/18 05:49:41;;;;;;;;;;;;;;;;;;5002572;28;19920;-46
2021/05/18 05:52:09;;;;;;;;;;;;;;;;;;5031243;28;19979;-42
2021/05/18 05:54:35;;;;;;;;;;;;;;;;;;5003112;28;19935;-42
2021/05/18 05:57:01;;;;;;;;;;;;;;;;;;5030417;28;20011;-42
2021/05/18 05:59:26;;;;;;;;;;;;;;;;;;5022684;28;19927;-42
2021/05/18 06:01:55;;;;;;;;;;;;;;;;;;5029171;28;19929;-40
2021/05/18 06:04:21;;;;;;;;;;;;;;;;;;5019734;28;20295;-38
2021/05/18 06:06:47;;;;;;;;;;;;;;;;;;5026806;28;19912;-41
2021/05/18 06:09:13;;;;;;;;;;;;;;;;;;5026119;28;19921;-40
2021/05/18 06:14:44;;;;;;;;;;;;;;;;;;5026639;28;20322;-38
2021/05/18 06:17:37;;;;;;;;;;;;;;;;;;5025320;28;19917;-40
2021/05/18 06:42:28;;;;;;;;;;;;;;;;;;5015671;28;20388;-41
2021/05/18 06:47:40;;;;;;;;;;;;;;;;;;5016350;28;19938;-41
2021/05/18 06:52:41;;;;;;;;;;;;;;;;;;5011908;28;19917;-45
2021/05/18 06:55:09;;;;;;;;;;;;;;;;;;5025888;28;19929;-42
2021/05/18 06:57:41;;;;;;;;;;;;;;;;;;5019021;28;19909;-42
2021/05/18 07:00:11;;;;;;;;;;;;;;;;;;5028007;28;20133;-38
2021/05/18 07:02:37;;;;;;;;;;;;;;;;;;5025374;28;20469;-43
2021/05/18 07:05:03;;;;;;;;;;;;;;;;;;5021122;28;19913;-49
2021/05/18 07:07:34;;;;;;;;;;;;;;;;;;5030299;28;19982;-45
2021/05/18 07:10:00;;;;;;;;;;;;;;;;;;5020168;28;19964;-45
2021/05/18 07:12:26;;;;;;;;;;;;;;;;;;5031366;28;19956;-40
2021/05/18 07:14:52;;;;;;;;;;;;;;;;;;5024897;28;19921;-48
2021/05/18 07:17:18;;;;;;;;;;;;;;;;;;5012625;28;20137;-46
2021/05/18 07:19:45;;;;;;;;;;;;;;;;;;5027042;28;20661;-42
2021/05/18 07:22:11;;;;;;;;;;;;;;;;;;5033521;28;19935;-47
2021/05/18 07:24:37;;;;;;;;;;;;;;;;;;5024210;28;19909;-44
2021/05/18 07:27:03;;;;;;;;;;;;;;;;;;5029359;28;19919;-43
2021/05/18 07:29:29;;;;;;;;;;;;;;;;;;5022509;28;19971;-48
2021/05/18 07:31:55;;;;;;;;;;;;;;;;;;5028186;28;19925;-49
2021/05/18 07:34:21;;;;;;;;;;;;;;;;;;5025498;28;20587;-48
2021/05/18 07:36:47;;;;;;;;;;;;;;;;;;5022933;28;20035;-44
2021/05/18 07:39:13;;;;;;;;;;;;;;;;;;5037862;28;20251;-40
2021/05/18 07:41:40;;;;;;;;;;;;;;;;;;5024554;28;19924;-46
2021/05/18 07:44:06;;;;;;;;;;;;;;;;;;5031499;28;19967;-41
2021/05/18 07:46:37;;;;;;;;;;;;;;;;;;5017318;28;20003;-42
2021/05/18 07:49:39;;;;;;;;;;;;;;;;;;5028109;28;19917;-42
2021/05/18 08:00:03;;;;;;;;;;;;;;;;;;5027960;28;20301;-43
2021/05/18 08:05:17;;;;;;;;;;;;;;;;;;5023075;28;19966;-42
2021/05/18 08:05:19;;;;;;;;;;;;;;;;;;5030765;28;19967;-42
2021/05/18 08:07:45;;;;;;;;;;;;;;;;;;5023013;28;19925;-47
2021/05/18 08:10:18;;;;;;;;;;;;;;;;;;5030432;28;20617;-46
2021/05/18 08:12:44;;;;;;;;;;;;;;;;;;5016333;28;20380;-44
2021/05/18 08:17:47;;;;;;;;;;;;;;;;;;5026200;28;20291;-44
2021/05/18 08:59:18;;;;;;;;;;;;;;;;;;5024076;28;20416;-41
2021/05/18 09:35:16;;;;;;;;;;;;;;;;;;5027939;28;20006;-42
2021/05/18 09:48:28;;;;;;;;;;;;;;;;;;5022658;28;20289;-42
2021/05/18 10:14:24;;;;;;;;;;;;;;;;;;5036167;28;19913;-42
2021/05/18 10:16:39;;;;;;;;;;;;;;;;;;5016537;28;20408;-41
2021/05/18 10:21:47;;;;;;;;;;;;;;;;;;5030727;28;19925;-41
2021/05/18 10:25:16;;;;;;;;;;;;;;;;;;5031406;28;20250;-42
2021/05/18 10:27:11;;;;;;;;;;;;;;;;;;5028696;28;20750;-41
2021/05/18 10:34:34;;;;;;;;;;;;;;;;;;5031511;28;19967;-41
2021/05/18 10:37:03;;;;;;;;;;;;;;;;;;5019276;28;20178;-41
2021/05/18 10:39:30;;;;;;;;;;;;;;;;;;5027494;28;20582;-41
2021/05/18 10:41:56;;;;;;;;;;;;;;;;;;5025583;28;19905;-41
2021/05/18 10:44:22;;;;;;;;;;;;;;;;;;5024920;28;20030;-42
2021/05/18 10:46:48;;;;;;;;;;;;;;;;;;5025916;28;20024;-41
2021/05/18 10:49:14;;;;;;;;;;;;;;;;;;5024863;28;19928;-42
2021/05/18 10:51:43;;;;;;;;;;;;;;;;;;5023167;28;19982;-44
2021/05/18 10:54:11;;;;;;;;;;;;;;;;;;5023983;28;20043;-45
2021/05/18 10:56:37;;;;;;;;;;;;;;;;;;5031031;28;19923;-41
2021/05/18 10:59:02;;;;;;;;;;;;;;;;;;5032129;28;19916;-41
2021/05/18 11:01:28;;;;;;;;;;;;;;;;;;5023433;28;19931;-41
2021/05/18 11:03:54;;;;;;;;;;;;;;;;;;5035273;28;20042;-39
2021/05/18 11:06:20;;;;;;;;;;;;;;;;;;5032214;28;19999;-42
2021/05/18 11:08:46;;;;;;;;;;;;;;;;;;5023345;28;20035;-44
2021/05/18 11:11:12;;;;;;;;;;;;;;;;;;5015439;28;19929;-43
2021/05/18 11:13:38;;;;;;;;;;;;;;;;;;5026595;28;19917;-47
2021/05/18 11:16:04;;;;;;;;;;;;;;;;;;5031272;28;19919;-49
2021/05/18 11:18:30;;;;;;;;;;;;;;;;;;5026622;28;20012;-48
2021/05/18 11:21:05;;;;;;;;;;;;;;;;;;5038839;28;20134;-42
2021/05/18 11:23:32;;;;;;;;;;;;;;;;;;5029299;28;19913;-47
2021/05/18 11:26:03;;;;;;;;;;;;;;;;;;5035742;28;19936;-48
2021/05/18 11:28:29;;;;;;;;;;;;;;;;;;5030041;28;19920;-49
2021/05/18 11:30:55;;;;;;;;;;;;;;;;;;5032819;28;19922;-51
2021/05/18 11:33:21;;;;;;;;;;;;;;;;;;5012543;28;19921;-45
2021/05/18 11:35:47;;;;;;;;;;;;;;;;;;5035971;28;19927;-48
2021/05/18 11:38:16;;;;;;;;;;;;;;;;;;5034871;28;19916;-44
2021/05/18 11:40:42;;;;;;;;;;;;;;;;;;5021385;28;19935;-44
2021/05/18 11:43:10;;;;;;;;;;;;;;;;;;5034732;28;19917;-40
2021/05/18 11:45:36;;;;;;;;;;;;;;;;;;5033322;28;19917;-45
2021/05/18 11:48:02;;;;;;;;;;;;;;;;;;5036359;28;20381;-41
2021/05/18 11:50:28;;;;;;;;;;;;;;;;;;5024908;28;20361;-47
2021/05/18 11:52:54;;;;;;;;;;;;;;;;;;5015447;28;20323;-44
2021/05/18 11:55:20;;;;;;;;;;;;;;;;;;5027696;28;19947;-49
2021/05/18 11:57:46;;;;;;;;;;;;;;;;;;5034247;28;20511;-49
2021/05/18 12:00:11;;;;;;;;;;;;;;;;;;5013305;28;20650;-42
2021/05/18 12:02:37;;;;;;;;;;;;;;;;;;5032095;28;19964;-43
2021/05/18 12:05:03;;;;;;;;;;;;;;;;;;5012299;28;19912;-45
2021/05/18 12:07:29;;;;;;;;;;;;;;;;;;5032842;28;20567;-44
2021/05/18 12:09:55;;;;;;;;;;;;;;;;;;5023057;28;20142;-50
2021/05/18 12:12:21;;;;;;;;;;;;;;;;;;5031859;28;20250;-45
2021/05/18 12:14:47;;;;;;;;;;;;;;;;;;5032070;28;19924;-47
2021/05/18 12:17:13;;;;;;;;;;;;;;;;;;5021654;28;20618;-47
2021/05/18 12:19:38;;;;;;;;;;;;;;;;;;5027473;28;21132;-48
2021/05/18 12:22:04;;;;;;;;;;;;;;;;;;5027978;28;19925;-46
2021/05/18 12:24:30;;;;;;;;;;;;;;;;;;5028154;28;19936;-44
2021/05/18 12:26:57;;;;;;;;;;;;;;;;;;5018929;28;20273;-45
2021/05/18 12:29:23;;;;;;;;;;;;;;;;;;5038503;28;19940;-52
2021/05/18 12:31:49;;;;;;;;;;;;;;;;;;5031897;28;19931;-45
2021/05/18 12:34:14;;;;;;;;;;;;;;;;;;5022933;28;19990;-50
2021/05/18 12:36:40;;;;;;;;;;;;;;;;;;5032300;28;20085;-45
2021/05/18 12:39:06;;;;;;;;;;;;;;;;;;5041935;28;19913;-49
2021/05/18 12:41:32;;;;;;;;;;;;;;;;;;5036260;28;20449;-44
2021/05/18 12:43:58;;;;;;;;;;;;;;;;;;5018006;28;20012;-43
2021/05/18 12:46:24;;;;;;;;;;;;;;;;;;5038829;28;19944;-53
2021/05/18 12:48:50;;;;;;;;;;;;;;;;;;5015748;28;19921;-47
2021/05/18 12:51:16;;;;;;;;;;;;;;;;;;5037096;28;20168;-48
2021/05/18 12:53:42;;;;;;;;;;;;;;;;;;5029143;28;19917;-48
2021/05/18 12:56:09;;;;;;;;;;;;;;;;;;5037544;28;19917;-54
2021/05/18 12:58:36;;;;;;;;;;;;;;;;;;5028493;28;19913;-51
2021/05/18 13:01:01;;;;;;;;;;;;;;;;;;5035464;28;20365;-48
2021/05/18 13:03:30;;;;;;;;;;;;;;;;;;5031162;28;19944;-48
2021/05/18 13:05:56;;;;;;;;;;;;;;;;;;5039763;28;19908;-50
2021/05/18 13:08:21;;;;;;;;;;;;;;;;;;5033339;28;19970;-45
2021/05/18 13:13:19;;;;;;;;;;;;;;;;;;5034209;28;19924;-42
2021/05/18 13:15:45;;;;;;;;;;;;;;;;;;5029758;28;20315;-42
2021/05/18 13:18:13;;;;;;;;;;;;;;;;;;5033629;28;19908;-42
2021/05/18 13:20:39;;;;;;;;;;;;;;;;;;5032543;28;20414;-49
2021/05/18 13:23:05;;;;;;;;;;;;;;;;;;5030846;28;19917;-41
2021/05/18 13:28:16;;;;;;;;;;;;;;;;;;5034614;28;19979;-50
2021/05/18 13:30:44;;;;;;;;;;;;;;;;;;5028232;28;19956;-42
2021/05/18 13:33:10;;;;;;;;;;;;;;;;;;5035267;28;20306;-43
2021/05/18 13:35:36;;;;;;;;;;;;;;;;;;5027997;28;19939;-42
2021/05/18 13:38:02;;;;;;;;;;;;;;;;;;5034576;28;19913;-42
2021/05/18 13:40:28;;;;;;;;;;;;;;;;;;5027874;28;21077;-45
2021/05/18 13:42:54;;;;;;;;;;;;;;;;;;5040105;28;19943;-45
2021/05/18 13:45:20;;;;;;;;;;;;;;;;;;5020773;28;20318;-49
2021/05/18 13:47:47;;;;;;;;;;;;;;;;;;5032266;28;19998;-46
2021/05/18 13:50:13;;;;;;;;;;;;;;;;;;5037637;28;19931;-44
2021/05/18 13:52:39;;;;;;;;;;;;;;;;;;5030674;28;19916;-48
2021/05/18 13:55:05;;;;;;;;;;;;;;;;;;5020581;28;19933;-45
2021/05/18 13:57:31;;;;;;;;;;;;;;;;;;5030633;28;20016;-41
2021/05/18 13:59:57;;;;;;;;;;;;;;;;;;5036964;28;19943;-44
2021/05/18 14:02:23;;;;;;;;;;;;;;;;;;5032704;28;19917;-46
2021/05/18 14:04:49;;;;;;;;;;;;;;;;;;5020027;28;19913;-48
2021/05/18 14:09:53;;;;;;;;;;;;;;;;;;5031954;28;19924;-48
2021/05/18 14:12:19;;;;;;;;;;;;;;;;;;5015935;28;19920;-45
2021/05/18 14:14:45;;;;;;;;;;;;;;;;;;5032650;28;19955;-49
2021/05/18 14:17:11;;;;;;;;;;;;;;;;;;5033563;28;19917;-47
2021/05/18 14:19:37;;;;;;;;;;;;;;;;;;5032922;28;20020;-47
2021/05/18 14:22:02;;;;;;;;;;;;;;;;;;5038851;28;20159;-47
2021/05/18 14:24:39;;;;;;;;;;;;;;;;;;5025729;28;19921;-50
2021/05/18 14:27:09;;;;;;;;;;;;;;;;;;5034397;28;19913;-50
2021/05/18 14:29:35;;;;;;;;;;;;;;;;;;5025283;28;19928;-44
2021/05/18 14:32:01;;;;;;;;;;;;;;;;;;5034988;28;19917;-47
2021/05/18 14:34:27;;;;;;;;;;;;;;;;;;5011367;28;19982;-53
2021/05/18 14:36:55;;;;;;;;;;;;;;;;;;5019613;28;19915;-63
2021/05/18 14:39:35;;;;;;;;;;;;;;;;;;5031852;28;19917;-52
2021/05/18 14:44:46;;;;;;;;;;;;;;;;;;5031680;28;19978;-49
2021/05/18 14:47:21;;;;;;;;;;;;;;;;;;5021047;28;19925;-52
2021/05/18 14:55:17;;;;;;;;;;;;;;;;;;5030983;28;19927;-45
2021/05/18 14:57:46;;;;;;;;;;;;;;;;;;5011210;28;20004;-45
2021/05/18 15:00:12;;;;;;;;;;;;;;;;;;5034654;28;19982;-43
2021/05/18 15:02:38;;;;;;;;;;;;;;;;;;5019699;28;19916;-53
2021/05/18 15:05:04;;;;;;;;;;;;;;;;;;5022871;28;20011;-47
2021/05/18 15:07:29;;;;;;;;;;;;;;;;;;5031621;28;20569;-46
2021/05/18 15:09:55;;;;;;;;;;;;;;;;;;5026894;28;20250;-42
2021/05/18 15:12:21;;;;;;;;;;;;;;;;;;5037528;28;20562;-43
2021/05/18 15:14:47;;;;;;;;;;;;;;;;;;5029213;28;20135;-56
2021/05/18 15:17:14;;;;;;;;;;;;;;;;;;5033833;28;19913;-42
2021/05/18 15:19:40;;;;;;;;;;;;;;;;;;5033487;28;20409;-48
2021/05/18 15:22:06;;;;;;;;;;;;;;;;;;5026537;28;19924;-43
2021/05/18 15:24:32;;;;;;;;;;;;;;;;;;5026890;28;19920;-45
2021/05/18 15:26:57;;;;;;;;;;;;;;;;;;5024063;28;20358;-43
2021/05/18 15:29:23;;;;;;;;;;;;;;;;;;5027875;28;20440;-45
2021/05/18 15:31:49;;;;;;;;;;;;;;;;;;5020814;28;20105;-44
2021/05/18 15:34:15;;;;;;;;;;;;;;;;;;5028321;28;19917;-43
2021/05/18 15:36:42;;;;;;;;;;;;;;;;;;5032165;28;20188;-44
2021/05/18 15:39:08;;;;;;;;;;;;;;;;;;5025209;28;20240;-45
2021/05/18 15:41:34;;;;;;;;;;;;;;;;;;5031741;28;19912;-44
2021/05/18 15:44:02;;;;;;;;;;;;;;;;;;5025692;28;19921;-45
2021/05/18 15:46:28;;;;;;;;;;;;;;;;;;5015895;28;20986;-44
2021/05/18 15:48:54;;;;;;;;;;;;;;;;;;5026011;28;19977;-44
2021/05/18 15:51:20;;;;;;;;;;;;;;;;;;5028222;28;19912;-44
2021/05/18 15:53:46;;;;;;;;;;;;;;;;;;5028359;28;19952;-45
2021/05/18 15:56:12;;;;;;;;;;;;;;;;;;5019770;28;19909;-46
2021/05/18 15:58:38;;;;;;;;;;;;;;;;;;5028058;28;19966;-45
2021/05/18 16:01:04;;;;;;;;;;;;;;;;;;5029232;28;19908;-48
2021/05/18 16:03:30;;;;;;;;;;;;;;;;;;5032459;28;19992;-45
2021/05/18 16:05:58;;;;;;;;;;;;;;;;;;5030672;28;20233;-44
2021/05/18 16:10:53;;;;;;;;;;;;;;;;;;5029812;28;20342;-46
2021/05/18 16:13:19;;;;;;;;;;;;;;;;;;5020126;28;19923;-44
2021/05/18 16:15:44;;;;;;;;;;;;;;;;;;5028375;28;20008;-45
2021/05/18 16:18:10;;;;;;;;;;;;;;;;;;5035704;28;20006;-45
2021/05/18 16:20:36;;;;;;;;;;;;;;;;;;5026432;28;20697;-45
2021/05/18 16:23:02;;;;;;;;;;;;;;;;;;5037590;28;20003;-46
2021/05/18 16:25:28;;;;;;;;;;;;;;;;;;5030959;28;19929;-44
2021/05/18 16:27:54;;;;;;;;;;;;;;;;;;5038701;28;19917;-44
2021/05/18 16:30:20;;;;;;;;;;;;;;;;;;5010609;28;19959;-45
2021/05/18 16:32:46;;;;;;;;;;;;;;;;;;5029612;28;19917;-44
2021/05/18 16:35:12;;;;;;;;;;;;;;;;;;5027541;28;21280;-45
2021/05/18 16:37:38;;;;;;;;;;;;;;;;;;5029159;28;19908;-45
2021/05/18 16:40:04;;;;;;;;;;;;;;;;;;5019155;28;21524;-44
2021/05/18 16:42:30;;;;;;;;;;;;;;;;;;5031062;28;19913;-45
2021/05/18 16:44:56;;;;;;;;;;;;;;;;;;5031884;28;19968;-46
2021/05/18 16:47:22;;;;;;;;;;;;;;;;;;5021874;28;20324;-45
2021/05/18 16:49:48;;;;;;;;;;;;;;;;;;5029868;28;19913;-44
2021/05/18 16:52:14;;;;;;;;;;;;;;;;;;5027369;28;20285;-45
2021/05/18 16:54:39;;;;;;;;;;;;;;;;;;5034428;28;19943;-45
2021/05/18 16:57:05;;;;;;;;;;;;;;;;;;5027569;28;19991;-44
2021/05/18 16:59:31;;;;;;;;;;;;;;;;;;5020634;28;21792;-44
2021/05/18 17:01:57;;;;;;;;;;;;;;;;;;5026805;28;19924;-46
2021/05/18 17:04:23;;;;;;;;;;;;;;;;;;5032732;28;20320;-43
2021/05/18 17:06:50;;;;;;;;;;;;;;;;;;5026677;28;19921;-45
2021/05/18 17:09:16;;;;;;;;;;;;;;;;;;5016019;28;20216;-45
2021/05/18 17:11:43;;;;;;;;;;;;;;;;;;5034126;28;19912;-46
2021/05/18 17:14:08;;;;;;;;;;;;;;;;;;5022335;28;19948;-51
2021/05/18 17:16:34;;;;;;;;;;;;;;;;;;5032126;28;19912;-43
2021/05/18 17:19:00;;;;;;;;;;;;;;;;;;5013523;28;20365;-43
2021/05/18 17:21:26;;;;;;;;;;;;;;;;;;5032777;28;20058;-51
2021/05/18 17:23:52;;;;;;;;;;;;;;;;;;5025641;28;20007;-49
2021/05/18 17:26:18;;;;;;;;;;;;;;;;;;5025255;28;19923;-48
2021/05/18 17:28:44;;;;;;;;;;;;;;;;;;5028144;28;19928;-41
2021/05/18 17:31:12;;;;;;;;;;;;;;;;;;5015024;28;20342;-41
2021/05/18 17:33:38;;;;;;;;;;;;;;;;;;5027607;28;19924;-41
2021/05/18 17:36:04;;;;;;;;;;;;;;;;;;5023907;28;19996;-41
2021/05/18 17:38:30;;;;;;;;;;;;;;;;;;5026209;28;20433;-41
2021/05/18 17:40:56;;;;;;;;;;;;;;;;;;5021051;28;20147;-42
2021/05/18 17:43:21;;;;;;;;;;;;;;;;;;5034722;28;19928;-41
2021/05/18 17:45:49;;;;;;;;;;;;;;;;;;5020392;28;19916;-42
2021/05/18 17:48:15;;;;;;;;;;;;;;;;;;5027584;28;19913;-41
2021/05/18 17:50:40;;;;;;;;;;;;;;;;;;5018359;28;19923;-41
2021/05/18 17:53:06;;;;;;;;;;;;;;;;;;5023655;28;19940;-41
2021/05/18 17:55:34;;;;;;;;;;;;;;;;;;5020035;28;19931;-41
2021/05/18 17:58:00;;;;;;;;;;;;;;;;;;5024786;28;19979;-41
2021/05/18 18:00:26;;;;;;;;;;;;;;;;;;5024951;28;19926;-41
2021/05/18 18:02:51;;;;;;;;;;;;;;;;;;5025377;28;20539;-41
2021/05/18 18:05:17;;;;;;;;;;;;;;;;;;5025569;28;19921;-42
2021/05/18 18:07:44;;;;;;;;;;;;;;;;;;5014860;28;19912;-41
2021/05/18 18:10:10;;;;;;;;;;;;;;;;;;5026948;28;19924;-41
2021/05/18 18:12:35;;;;;;;;;;;;;;;;;;5028338;28;19913;-41
2021/05/18 18:15:01;;;;;;;;;;;;;;;;;;5015050;28;19924;-41
2021/05/18 18:17:27;;;;;;;;;;;;;;;;;;5027348;28;19917;-41
2021/05/18 18:19:53;;;;;;;;;;;;;;;;;;5030459;28;19928;-41
2021/05/18 18:22:19;;;;;;;;;;;;;;;;;;5029979;28;19970;-40
2021/05/18 18:24:45;;;;;;;;;;;;;;;;;;5012730;28;19917;-40
2021/05/18 18:27:11;;;;;;;;;;;;;;;;;;5022525;28;19921;-40
2021/05/18 18:29:39;;;;;;;;;;;;;;;;;;5015024;28;19956;-41
2021/05/18 18:32:05;;;;;;;;;;;;;;;;;;5028563;28;19924;-40
2021/05/18 18:34:31;;;;;;;;;;;;;;;;;;5020843;28;19921;-41
2021/05/18 18:36:58;;;;;;;;;;;;;;;;;;5021757;28;19940;-40
2021/05/18 18:39:24;;;;;;;;;;;;;;;;;;5022066;28;19917;-40
2021/05/18 18:41:49;;;;;;;;;;;;;;;;;;5024485;28;19994;-40
2021/05/18 18:44:15;;;;;;;;;;;;;;;;;;5024690;28;19961;-40
2021/05/18 18:46:41;;;;;;;;;;;;;;;;;;5025903;28;19985;-40
2021/05/18 18:49:12;;;;;;;;;;;;;;;;;;5025021;28;20003;-41
2021/05/18 18:51:39;;;;;;;;;;;;;;;;;;5029914;28;20147;-42
2021/05/18 18:54:05;;;;;;;;;;;;;;;;;;5011682;28;20012;-41
2021/05/18 18:56:31;;;;;;;;;;;;;;;;;;5013046;28;19968;-41
2021/05/18 18:58:56;;;;;;;;;;;;;;;;;;5013573;28;19998;-41
2021/05/18 19:01:24;;;;;;;;;;;;;;;;;;5013894;28;20668;-41
2021/05/18 19:03:54;;;;;;;;;;;;;;;;;;5033655;28;20380;-41
2021/05/18 19:06:35;;;;;;;;;;;;;;;;;;5025019;28;20578;-41
2021/05/18 19:14:11;;;;;;;;;;;;;;;;;;5034969;28;20358;-41
2021/05/18 19:16:42;;;;;;;;;;;;;;;;;;5033571;28;20318;-41
2021/05/18 19:19:08;;;;;;;;;;;;;;;;;;5036054;28;19967;-41
2021/05/18 19:21:34;;;;;;;;;;;;;;;;;;5039517;28;20229;-41
2021/05/18 19:24:00;;;;;;;;;;;;;;;;;;5037389;28;19920;-42
2021/05/18 19:26:26;;;;;;;;;;;;;;;;;;5032798;28;19913;-41
2021/05/18 19:28:52;;;;;;;;;;;;;;;;;;5038213;28;19917;-41
2021/05/18 19:31:18;;;;;;;;;;;;;;;;;;5035598;28;20027;-41
2021/05/18 19:33:49;;;;;;;;;;;;;;;;;;5019897;28;19916;-41
2021/05/18 19:37:22;;;;;;;;;;;;;;;;;;5015745;28;19917;-41
2021/05/18 19:50:01;;;;;;;;;;;;;;;;;;5040680;28;19978;-41
2021/05/18 19:52:27;;;;;;;;;;;;;;;;;;5029286;28;19960;-39
2021/05/18 19:54:53;;;;;;;;;;;;;;;;;;5026998;28;19963;-38
2021/05/18 19:57:27;;;;;;;;;;;;;;;;;;5029673;28;20301;-41
2021/05/18 20:17:10;;;;;;;;;;;;;;;;;;5032463;28;20379;-41
2021/05/18 20:21:47;;;;;;;;;;;;;;;;;;5039509;28;20752;-41
2021/05/18 20:24:13;;;;;;;;;;;;;;;;;;5023991;28;19921;-41
2021/05/18 20:26:39;;;;;;;;;;;;;;;;;;5013863;28;19920;-39
2021/05/18 20:29:05;;;;;;;;;;;;;;;;;;5023993;28;19920;-39
2021/05/18 20:31:31;;;;;;;;;;;;;;;;;;5028550;28;19917;-39
2021/05/18 20:34:06;;;;;;;;;;;;;;;;;;5004589;28;19925;-39
2021/05/18 20:39:14;;;;;;;;;;;;;;;;;;5032665;28;20381;-39
2021/05/18 20:41:40;;;;;;;;;;;;;;;;;;5036330;28;19913;-40
2021/05/18 20:44:06;;;;;;;;;;;;;;;;;;5019509;28;19917;-39
2021/05/18 20:46:32;;;;;;;;;;;;;;;;;;5026710;28;20377;-39
2021/05/18 20:48:58;;;;;;;;;;;;;;;;;;5034202;28;20067;-39
2021/05/18 20:51:24;;;;;;;;;;;;;;;;;;5026741;28;19917;-39
2021/05/18 20:53:50;;;;;;;;;;;;;;;;;;5034987;28;19913;-39
2021/05/18 20:56:16;;;;;;;;;;;;;;;;;;5028769;28;19913;-39
2021/05/18 20:58:41;;;;;;;;;;;;;;;;;;5030298;28;19916;-40
2021/05/18 21:01:07;;;;;;;;;;;;;;;;;;5028589;28;19921;-40
2021/05/18 21:03:33;;;;;;;;;;;;;;;;;;5034767;28;20003;-39
2021/05/18 21:06:02;;;;;;;;;;;;;;;;;;5026442;28;19920;-39
2021/05/18 21:08:47;;;;;;;;;;;;;;;;;;5032018;28;19974;-39
2021/05/18 21:11:49;;;;;;;;;;;;;;;;;;5025638;28;20349;-39
2021/05/18 21:16:43;;;;;;;;;;;;;;;;;;5030315;28;19917;-39
2021/05/18 21:19:09;;;;;;;;;;;;;;;;;;5032429;28;19947;-39
2021/05/18 21:21:35;;;;;;;;;;;;;;;;;;5028667;28;20397;-39
2021/05/18 21:24:02;;;;;;;;;;;;;;;;;;5032653;28;19971;-39
2021/05/18 21:26:28;;;;;;;;;;;;;;;;;;5036947;28;19912;-39
2021/05/18 21:28:54;;;;;;;;;;;;;;;;;;5027570;28;19917;-39
2021/05/18 21:31:19;;;;;;;;;;;;;;;;;;5013730;28;20004;-39
2021/05/18 21:33:45;;;;;;;;;;;;;;;;;;5007717;28;20163;-40
2021/05/18 21:36:11;;;;;;;;;;;;;;;;;;5036234;28;20228;-39
2021/05/18 21:38:37;;;;;;;;;;;;;;;;;;5021453;28;20059;-39
2021/05/18 21:41:05;;;;;;;;;;;;;;;;;;5029878;28;20011;-39
2021/05/18 21:43:33;;;;;;;;;;;;;;;;;;5032110;28;20004;-39
2021/05/18 21:45:59;;;;;;;;;;;;;;;;;;5034686;28;19952;-39
2021/05/18 21:48:25;;;;;;;;;;;;;;;;;;5020231;28;20291;-39